createdAt,value
2018-01-21T04:32:35.103Z,3.00
2018-01-21T04:35:08.923Z,3.10
2018-01-21T04:37:44.248Z,3.20
2018-01-21T04:40:18.065Z,3.20
2018-01-21T04:42:52.010Z,3.20
2018-01-21T04:45:25.737Z,3.20
2018-01-21T04:48:00.303Z,3.20
2018-01-21T04:50:34.084Z,3.20
2018-01-21T04:53:09.938Z,3.30
2018-01-21T04:55:44.479Z,3.30
2018-01-21T04:58:35.185Z,3.30
2018-01-21T05:01:08.840Z,3.20
2018-01-21T05:03:42.603Z,3.20
2018-01-21T05:06:16.495Z,3.20
2018-01-21T05:08:50.267Z,3.20
2018-01-21T05:11:24.831Z,3.30
2018-01-21T05:13:59.344Z,3.20
2018-01-21T05:16:33.143Z,3.20
2018-01-21T05:19:06.988Z,3.20
2018-01-21T05:21:41.419Z,3.20
2018-01-21T05:24:15.342Z,3.10
2018-01-21T05:26:49.880Z,3.20
2018-01-21T05:29:23.759Z,3.20
2018-01-21T05:31:57.498Z,3.20
2018-01-21T05:34:31.404Z,3.20
2018-01-21T05:37:05.326Z,3.20
2018-01-21T05:39:39.019Z,3.20
2018-01-21T05:42:13.643Z,3.10
2018-01-21T05:44:47.494Z,3.10
2018-01-21T05:47:21.393Z,3.20
2018-01-21T05:49:55.263Z,3.10
2018-01-21T05:52:29.812Z,3.20
2018-01-21T05:55:03.535Z,3.20
2018-01-21T05:57:38.054Z,3.10
2018-01-21T06:00:12.507Z,3.10
2018-01-21T06:02:46.408Z,3.10
2018-01-21T06:05:20.996Z,3.10
2018-01-21T06:07:54.875Z,3.10
2018-01-21T06:10:28.610Z,3.10
2018-01-21T06:13:02.456Z,3.20
2018-01-21T06:15:36.275Z,3.20
2018-01-21T06:18:10.176Z,3.20
2018-01-21T06:20:43.787Z,3.20
2018-01-21T06:23:19.182Z,3.20
2018-01-21T06:25:52.865Z,3.20
2018-01-21T06:28:26.647Z,3.20
2018-01-21T06:31:01.194Z,3.30
2018-01-21T06:33:34.996Z,3.30
2018-01-21T06:36:08.839Z,3.30
2018-01-21T06:38:42.632Z,3.20
2018-01-21T06:41:17.263Z,3.30
2018-01-21T06:43:51.055Z,3.30
2018-01-21T06:46:24.890Z,3.20
2018-01-21T06:48:59.492Z,3.20
2018-01-21T06:51:34.071Z,3.20
2018-01-21T06:54:08.663Z,3.20
2018-01-21T06:56:42.439Z,3.20
2018-01-21T06:59:16.295Z,3.20
2018-01-21T07:01:50.064Z,3.20
2018-01-21T07:04:23.764Z,3.10
2018-01-21T07:06:57.387Z,3.10
2018-01-21T07:09:31.945Z,3.20
2018-01-21T07:12:05.636Z,3.20
2018-01-21T07:14:39.207Z,3.20
2018-01-21T07:17:13.027Z,3.20
2018-01-21T07:19:46.779Z,3.30
2018-01-21T07:22:20.583Z,3.30
2018-01-21T07:24:54.318Z,3.30
2018-01-21T07:27:28.165Z,3.30
2018-01-21T07:30:01.888Z,3.20
2018-01-21T07:32:35.724Z,3.30
2018-01-21T07:35:10.220Z,3.20
2018-01-21T07:37:44.773Z,3.10
2018-01-21T07:40:18.491Z,3.10
2018-01-21T07:42:52.260Z,3.10
2018-01-21T07:45:26.127Z,3.10
2018-01-21T07:47:59.843Z,3.10
2018-01-21T07:50:33.681Z,3.20
2018-01-21T07:53:08.194Z,3.10
2018-01-21T07:55:42.039Z,3.10
2018-01-21T07:58:15.801Z,3.20
2018-01-21T08:00:49.560Z,3.20
2018-01-21T08:03:24.140Z,3.30
2018-01-21T08:05:58.052Z,3.30
2018-01-21T08:08:31.835Z,3.30
2018-01-21T08:11:05.608Z,3.30
2018-01-21T08:13:39.431Z,3.30
2018-01-21T08:16:13.227Z,3.30
2018-01-21T08:18:46.991Z,3.20
2018-01-21T08:21:20.756Z,3.10
2018-01-21T08:23:55.299Z,3.10
2018-01-21T08:26:29.099Z,3.10
2018-01-21T08:29:02.699Z,3.20
2018-01-21T08:31:37.256Z,3.20
2018-01-21T08:34:18.872Z,3.20
2018-01-21T08:36:58.295Z,3.20
2018-01-21T08:39:37.719Z,3.30
2018-01-21T08:42:18.041Z,3.40
2018-01-21T08:44:51.940Z,3.40
2018-01-21T08:47:25.792Z,3.30
2018-01-21T08:49:59.608Z,3.20
2018-01-21T08:52:33.459Z,3.20
2018-01-21T08:55:07.293Z,3.30
2018-01-21T08:57:44.198Z,3.40
2018-01-21T09:00:18.085Z,3.60
2018-01-21T09:02:52.131Z,3.60
2018-01-21T09:05:25.890Z,3.50
2018-01-21T09:07:59.631Z,3.60
2018-01-21T09:10:33.481Z,3.70
2018-01-21T09:13:07.303Z,3.80
2018-01-21T09:15:41.040Z,4.10
2018-01-21T09:18:14.834Z,4.50
2018-01-21T09:20:48.599Z,4.60
2018-01-21T09:23:22.556Z,4.90
2018-01-21T09:25:56.305Z,5.00
2018-01-21T09:28:30.080Z,4.70
2018-01-21T09:31:03.811Z,4.50
2018-01-21T09:33:37.609Z,4.40
2018-01-21T09:36:12.229Z,4.40
2018-01-21T09:38:46.013Z,4.40
2018-01-21T09:41:19.760Z,5.00
2018-01-21T09:43:53.431Z,5.10
2018-01-21T09:46:27.239Z,5.00
2018-01-21T09:49:01.056Z,4.90
2018-01-21T09:51:34.895Z,4.30
2018-01-21T09:54:08.680Z,3.90
2018-01-21T09:56:43.276Z,3.70
2018-01-21T09:59:17.102Z,3.70
2018-01-21T10:01:50.908Z,3.70
2018-01-21T10:04:24.715Z,3.90
2018-01-21T10:06:58.555Z,4.00
2018-01-21T10:09:32.176Z,4.10
2018-01-21T10:12:06.831Z,4.00
2018-01-21T10:14:40.700Z,4.00
2018-01-21T10:17:15.416Z,4.00
2018-01-21T10:19:49.163Z,4.00
2018-01-21T10:22:22.864Z,3.80
2018-01-21T10:24:56.548Z,4.00
2018-01-21T10:27:30.428Z,4.20
2018-01-21T10:30:05.105Z,4.60
2018-01-21T10:32:39.657Z,5.10
2018-01-21T10:35:14.748Z,5.10
2018-01-21T10:37:48.607Z,5.10
2018-01-21T10:40:22.355Z,5.10
2018-01-21T10:42:57.015Z,4.40
2018-01-21T10:45:30.819Z,4.40
2018-01-21T10:48:04.663Z,4.40
2018-01-21T10:50:39.117Z,4.50
2018-01-21T10:53:12.895Z,4.50
2018-01-21T10:55:46.700Z,4.50
2018-01-21T10:58:20.495Z,4.80
2018-01-21T11:01:00.667Z,5.00
2018-01-21T11:03:34.583Z,5.00
2018-01-21T11:06:09.247Z,4.50
2018-01-21T11:08:43.761Z,4.40
2018-01-21T11:11:17.623Z,4.40
2018-01-21T11:13:51.681Z,4.50
2018-01-21T11:16:26.159Z,4.60
2018-01-21T11:18:59.972Z,4.60
2018-01-21T11:21:33.739Z,4.70
2018-01-21T11:24:07.575Z,4.60
2018-01-21T11:26:41.215Z,4.60
2018-01-21T11:29:14.984Z,4.50
2018-01-21T11:31:48.754Z,4.50
2018-01-21T11:34:22.595Z,4.40
2018-01-21T11:36:57.154Z,4.30
2018-01-21T11:39:30.912Z,4.30
2018-01-21T11:42:04.728Z,4.40
2018-01-21T11:44:38.515Z,4.40
2018-01-21T11:47:12.228Z,4.60
2018-01-21T11:49:46.784Z,4.70
2018-01-21T11:52:20.672Z,4.70
2018-01-21T11:54:55.227Z,4.50
2018-01-21T11:57:30.303Z,4.50
2018-01-21T12:00:04.899Z,4.50
2018-01-21T12:02:39.529Z,4.50
2018-01-21T12:05:14.769Z,4.60
2018-01-21T12:07:49.279Z,4.60
2018-01-21T12:10:23.033Z,4.50
2018-01-21T12:12:56.906Z,4.50
2018-01-21T12:15:30.766Z,4.40
2018-01-21T12:18:04.652Z,4.50
2018-01-21T12:20:38.437Z,4.40
2018-01-21T12:23:12.328Z,4.60
2018-01-21T12:25:46.192Z,4.80
2018-01-21T12:28:20.755Z,5.20
2018-01-21T12:30:55.305Z,5.30
2018-01-21T12:33:29.120Z,5.30
2018-01-21T12:36:03.627Z,5.20
2018-01-21T12:38:39.119Z,5.10
2018-01-21T12:41:12.840Z,5.10
2018-01-21T12:43:46.712Z,5.10
2018-01-21T12:46:21.270Z,5.00
2018-01-21T12:48:55.104Z,5.00
2018-01-21T12:51:29.700Z,5.00
2018-01-21T12:54:03.629Z,4.90
2018-01-21T12:56:37.584Z,5.00
2018-01-21T12:59:11.624Z,5.00
2018-01-21T13:01:45.492Z,5.00
2018-01-21T13:04:19.303Z,5.00
2018-01-21T13:06:53.108Z,4.90
2018-01-21T13:09:26.944Z,4.90
2018-01-21T13:12:00.751Z,4.80
2018-01-21T13:14:34.643Z,4.80
2018-01-21T13:17:08.386Z,4.90
2018-01-21T13:19:42.540Z,4.90
2018-01-21T13:22:16.368Z,5.00
2018-01-21T13:24:50.965Z,5.00
2018-01-21T13:27:24.684Z,5.00
2018-01-21T13:29:58.545Z,5.10
2018-01-21T13:32:32.300Z,5.00
2018-01-21T13:35:06.907Z,5.00
2018-01-21T13:37:41.730Z,5.10
2018-01-21T13:40:16.467Z,5.10
2018-01-21T13:42:50.151Z,5.10
2018-01-21T13:45:24.395Z,5.00
2018-01-21T13:47:58.250Z,4.90
2018-01-21T13:50:32.904Z,4.90
2018-01-21T13:53:06.638Z,4.80
2018-01-21T13:55:40.405Z,4.90
2018-01-21T13:58:14.027Z,4.90
2018-01-21T14:00:47.831Z,4.80
2018-01-21T14:03:22.455Z,4.90
2018-01-21T14:05:56.283Z,4.90
2018-01-21T14:08:30.204Z,5.00
2018-01-21T14:11:04.071Z,4.90
2018-01-21T14:13:37.973Z,5.00
2018-01-21T14:16:11.820Z,5.10
2018-01-21T14:18:45.612Z,5.10
2018-01-21T14:21:19.403Z,5.10
2018-01-21T14:23:54.032Z,5.10
2018-01-21T14:26:28.558Z,5.10
2018-01-21T14:29:02.359Z,5.10
2018-01-21T14:31:36.215Z,5.10
2018-01-21T14:34:10.153Z,5.20
2018-01-21T14:36:44.659Z,5.20
2018-01-21T14:39:19.592Z,5.20
2018-01-21T14:41:53.385Z,5.20
2018-01-21T14:44:27.965Z,5.20
2018-01-21T14:47:03.279Z,5.00
2018-01-21T14:49:37.157Z,5.00
2018-01-21T14:52:10.935Z,5.10
2018-01-21T14:54:45.544Z,5.20
2018-01-21T14:57:19.196Z,5.10
2018-01-21T14:59:53.090Z,5.20
2018-01-21T15:02:27.576Z,5.20
2018-01-21T15:05:02.205Z,5.20
2018-01-21T15:07:36.008Z,5.20
2018-01-21T15:10:10.640Z,5.10
2018-01-21T15:12:44.555Z,5.10
2018-01-21T15:15:19.066Z,5.10
2018-01-21T15:17:53.596Z,5.00
2018-01-21T15:20:27.517Z,5.00
2018-01-21T15:23:01.307Z,5.00
2018-01-21T15:25:36.235Z,5.00
2018-01-21T15:28:10.864Z,5.00
2018-01-21T15:30:45.538Z,5.00
2018-01-21T15:33:19.248Z,5.00
2018-01-21T15:35:53.131Z,5.00
2018-01-21T15:38:26.853Z,5.00
2018-01-21T15:41:00.633Z,5.00
2018-01-21T15:43:34.494Z,5.00
2018-01-21T15:46:09.050Z,4.70
2018-01-21T15:48:42.835Z,4.70
2018-01-21T15:51:16.504Z,4.70
2018-01-21T15:53:50.423Z,4.70
2018-01-21T15:56:24.187Z,4.70
2018-01-21T15:58:58.738Z,4.60
2018-01-21T16:01:32.776Z,4.60
2018-01-21T16:04:07.201Z,4.60
2018-01-21T16:06:40.957Z,4.60
2018-01-21T16:09:15.532Z,4.60
2018-01-21T16:11:49.307Z,4.60
2018-01-21T16:14:22.960Z,4.60
2018-01-21T16:16:56.803Z,4.60
2018-01-21T16:19:31.260Z,4.60
2018-01-21T16:22:05.813Z,4.60
2018-01-21T16:24:39.411Z,4.60
2018-01-21T16:27:13.397Z,4.60
2018-01-21T16:29:47.191Z,4.60
2018-01-21T16:32:21.014Z,4.60
2018-01-21T16:34:55.517Z,4.60
2018-01-21T16:37:41.264Z,4.60
2018-01-21T16:40:15.885Z,4.60
2018-01-21T16:42:49.644Z,4.60
2018-01-21T16:45:23.416Z,4.60
2018-01-21T16:47:58.054Z,4.50
2018-01-21T16:50:32.591Z,4.40
2018-01-21T16:53:07.278Z,4.30
2018-01-21T16:55:41.115Z,4.30
2018-01-21T16:58:14.958Z,4.20
2018-01-21T17:00:48.781Z,4.20
2018-01-21T17:03:22.619Z,4.10
2018-01-21T17:05:56.547Z,4.10
2018-01-21T17:08:30.300Z,4.00
2018-01-21T17:11:04.163Z,4.00
2018-01-21T17:13:37.967Z,4.00
2018-01-21T17:16:11.844Z,4.00
2018-01-21T17:18:45.588Z,3.90
2018-01-21T17:21:20.199Z,3.90
2018-01-21T17:23:54.812Z,3.90
2018-01-21T17:26:28.462Z,3.90
2018-01-21T17:29:02.355Z,3.90
2018-01-21T17:31:36.399Z,3.90
2018-01-21T17:34:10.243Z,3.90
2018-01-21T17:36:43.995Z,3.90
2018-01-21T17:39:17.786Z,3.90
2018-01-21T17:41:51.670Z,3.90
2018-01-21T17:44:25.485Z,3.80
2018-01-21T17:47:00.130Z,3.80
2018-01-21T17:49:33.943Z,3.80
2018-01-21T17:52:07.861Z,3.80
2018-01-21T17:54:42.426Z,3.80
2018-01-21T17:57:16.891Z,3.80
2018-01-21T17:59:51.571Z,3.70
2018-01-21T18:02:25.337Z,3.70
2018-01-21T18:04:59.240Z,3.70
2018-01-21T18:07:33.743Z,3.80
2018-01-21T18:10:07.505Z,3.80
2018-01-21T18:12:41.342Z,3.90
2018-01-21T18:15:16.212Z,3.80
2018-01-21T18:17:49.964Z,3.80
2018-01-21T18:20:23.790Z,3.80
2018-01-21T18:22:57.564Z,3.80
2018-01-21T18:25:31.426Z,3.70
2018-01-21T18:28:05.963Z,3.70
2018-01-21T18:30:40.452Z,3.60
2018-01-21T18:33:14.235Z,3.60
2018-01-21T18:35:48.042Z,3.60
2018-01-21T18:38:23.629Z,3.50
2018-01-21T18:40:57.452Z,3.50
2018-01-21T18:43:31.319Z,3.50
2018-01-21T18:46:05.111Z,3.50
2018-01-21T18:48:39.725Z,3.50
2018-01-21T18:51:13.646Z,3.50
2018-01-21T18:53:48.539Z,3.50
2018-01-21T18:56:23.135Z,3.40
2018-01-21T18:58:56.921Z,3.50
2018-01-21T19:01:30.681Z,3.50
2018-01-21T19:04:04.599Z,3.50
2018-01-21T19:06:38.376Z,3.50
2018-01-21T19:09:12.104Z,3.50
2018-01-21T19:11:47.023Z,3.50
2018-01-21T19:14:20.958Z,3.50
2018-01-21T19:16:55.532Z,3.50
2018-01-21T19:19:29.346Z,3.50
2018-01-21T19:22:03.891Z,3.50
2018-01-21T19:24:38.434Z,3.50
2018-01-21T19:27:12.213Z,3.50
2018-01-21T19:29:46.091Z,3.60
2018-01-21T19:32:20.204Z,3.60
2018-01-21T19:34:54.498Z,3.60
2018-01-21T19:37:28.470Z,3.60
2018-01-21T19:40:02.424Z,3.70
2018-01-21T19:42:41.793Z,3.70
2018-01-21T19:45:15.643Z,3.70
2018-01-21T19:47:49.488Z,3.70
2018-01-21T19:50:23.383Z,3.70
2018-01-21T19:52:57.224Z,3.80
2018-01-21T19:55:31.721Z,3.80
2018-01-21T19:58:05.611Z,3.80
2018-01-21T20:00:39.569Z,3.70
2018-01-21T20:03:13.580Z,3.70
2018-01-21T20:05:47.454Z,3.70
2018-01-21T20:08:22.059Z,3.70
2018-01-21T20:10:56.064Z,3.60
2018-01-21T20:13:30.695Z,3.70
2018-01-21T20:16:04.523Z,3.60
2018-01-21T20:18:39.119Z,3.60
2018-01-21T20:21:13.007Z,3.60
2018-01-21T20:23:46.778Z,3.60
2018-01-21T20:26:21.375Z,3.40
2018-01-21T20:28:55.185Z,3.40
2018-01-21T20:31:28.992Z,3.40
2018-01-21T20:34:02.724Z,3.40
2018-01-21T20:36:36.564Z,3.30
2018-01-21T20:39:10.368Z,3.20
2018-01-21T20:41:44.144Z,3.10
2018-01-21T20:44:18.827Z,3.10
2018-01-21T20:46:52.571Z,3.10
2018-01-21T20:49:26.480Z,3.10
2018-01-21T21:05:27.587Z,3.20
2018-01-21T21:08:02.370Z,3.20
2018-01-21T21:10:36.131Z,3.20
2018-01-21T21:13:09.942Z,3.20
2018-01-21T21:15:43.733Z,3.20
2018-01-21T21:18:17.590Z,3.10
2018-01-21T21:20:52.892Z,2.80
2018-01-21T21:23:27.474Z,2.90
2018-01-21T21:26:01.444Z,2.90
2018-01-21T21:28:35.295Z,2.90
2018-01-21T21:31:09.223Z,2.90
2018-01-21T21:33:43.782Z,3.00
2018-01-21T21:36:17.505Z,3.00
2018-01-21T21:38:51.280Z,3.00
2018-01-21T21:41:25.058Z,2.90
2018-01-21T21:43:58.982Z,2.90
2018-01-21T21:46:32.789Z,2.80
2018-01-21T21:49:08.124Z,2.90
2018-01-21T21:51:41.934Z,2.90
2018-01-21T21:54:15.938Z,2.90
2018-01-21T21:56:50.505Z,2.90
2018-01-21T21:59:24.351Z,2.90
